sensor_id;sensor_type;location;lat;lon;timestamp;P1;durP1;ratioP1;P2;durP2;ratioP2
9042;SDS011;4556;49.150;8.808;2023-03-05T00:01:28;32.20;;;14.17;;
9042;SDS011;4556;49.150;8.808;2023-03-05T00:03:57;28.13;;;13.67;;
9042;SDS011;4556;49.150;8.808;2023-03-05T00:06:25;28.73;;;14.17;;
9042;SDS011;4556;49.150;8.808;2023-03-05T00:08:53;33.97;;;15.80;;
9042;SDS011;4556;49.150;8.808;2023-03-05T00:11:22;29.23;;;13.60;;
9042;SDS011;4556;49.150;8.808;2023-03-05T00:13:53;28.80;;;14.17;;
9042;SDS011;4556;49.150;8.808;2023-03-05T00:16:21;28.40;;;14.20;;
9042;SDS011;4556;49.150;8.808;2023-03-05T00:18:50;27.47;;;14.37;;
9042;SDS011;4556;49.150;8.808;2023-03-05T00:21:19;31.47;;;13.20;;
9042;SDS011;4556;49.150;8.808;2023-03-05T00:23:48;28.87;;;13.63;;
9042;SDS011;4556;49.150;8.808;2023-03-05T00:26:16;30.17;;;13.97;;
9042;SDS011;4556;49.150;8.808;2023-03-05T00:28:43;26.27;;;13.77;;
9042;SDS011;4556;49.150;8.808;2023-03-05T00:31:15;30.70;;;13.70;;
9042;SDS011;4556;49.150;8.808;2023-03-05T00:33:43;29.17;;;13.80;;
9042;SDS011;4556;49.150;8.808;2023-03-05T00:36:10;30.97;;;14.30;;
9042;SDS011;4556;49.150;8.808;2023-03-05T00:38:37;28.27;;;12.83;;
9042;SDS011;4556;49.150;8.808;2023-03-05T00:41:04;26.93;;;12.83;;
9042;SDS011;4556;49.150;8.808;2023-03-05T00:43:31;34.20;;;13.53;;
9042;SDS011;4556;49.150;8.808;2023-03-05T00:45:58;26.73;;;13.33;;
9042;SDS011;4556;49.150;8.808;2023-03-05T00:48:26;28.80;;;13.97;;
9042;SDS011;4556;49.150;8.808;2023-03-05T00:50:53;28.30;;;12.90;;
9042;SDS011;4556;49.150;8.808;2023-03-05T00:53:21;26.67;;;12.73;;
9042;SDS011;4556;49.150;8.808;2023-03-05T00:55:48;29.10;;;12.97;;
9042;SDS011;4556;49.150;8.808;2023-03-05T00:58:15;26.30;;;13.00;;
9042;SDS011;4556;49.150;8.808;2023-03-05T01:00:42;28.87;;;13.57;;
9042;SDS011;4556;49.150;8.808;2023-03-05T01:03:09;26.77;;;13.23;;
9042;SDS011;4556;49.150;8.808;2023-03-05T01:05:38;28.73;;;13.17;;
9042;SDS011;4556;49.150;8.808;2023-03-05T01:08:05;31.07;;;13.30;;
9042;SDS011;4556;49.150;8.808;2023-03-05T01:10:32;26.33;;;12.83;;
9042;SDS011;4556;49.150;8.808;2023-03-05T01:12:59;25.33;;;12.90;;
9042;SDS011;4556;49.150;8.808;2023-03-05T01:15:26;26.33;;;12.57;;
9042;SDS011;4556;49.150;8.808;2023-03-05T01:17:54;28.30;;;13.00;;
9042;SDS011;4556;49.150;8.808;2023-03-05T01:20:21;27.97;;;13.53;;
9042;SDS011;4556;49.150;8.808;2023-03-05T01:22:50;25.80;;;13.10;;
9042;SDS011;4556;49.150;8.808;2023-03-05T01:25:18;25.87;;;12.40;;
9042;SDS011;4556;49.150;8.808;2023-03-05T01:27:45;25.37;;;12.10;;
9042;SDS011;4556;49.150;8.808;2023-03-05T01:30:13;26.90;;;12.87;;
9042;SDS011;4556;49.150;8.808;2023-03-05T01:32:41;26.23;;;12.77;;
9042;SDS011;4556;49.150;8.808;2023-03-05T01:35:09;26.20;;;12.63;;
9042;SDS011;4556;49.150;8.808;2023-03-05T01:37:40;25.60;;;12.50;;
9042;SDS011;4556;49.150;8.808;2023-03-05T01:40:11;24.63;;;12.00;;
9042;SDS011;4556;49.150;8.808;2023-03-05T01:42:43;24.53;;;12.27;;
9042;SDS011;4556;49.150;8.808;2023-03-05T01:45:12;27.83;;;13.47;;
9042;SDS011;4556;49.150;8.808;2023-03-05T01:47:40;27.80;;;12.43;;
9042;SDS011;4556;49.150;8.808;2023-03-05T01:50:09;26.77;;;13.07;;
9042;SDS011;4556;49.150;8.808;2023-03-05T01:52:40;28.93;;;12.20;;
9042;SDS011;4556;49.150;8.808;2023-03-05T01:55:12;32.10;;;13.77;;
9042;SDS011;4556;49.150;8.808;2023-03-05T01:57:42;25.30;;;12.77;;
9042;SDS011;4556;49.150;8.808;2023-03-05T02:00:12;28.97;;;13.80;;
9042;SDS011;4556;49.150;8.808;2023-03-05T02:02:41;23.80;;;12.73;;
9042;SDS011;4556;49.150;8.808;2023-03-05T02:05:13;25.57;;;12.87;;
9042;SDS011;4556;49.150;8.808;2023-03-05T02:07:43;29.90;;;13.27;;
9042;SDS011;4556;49.150;8.808;2023-03-05T02:10:16;25.20;;;11.80;;
9042;SDS011;4556;49.150;8.808;2023-03-05T02:12:44;25.10;;;13.27;;
9042;SDS011;4556;49.150;8.808;2023-03-05T02:15:13;26.10;;;11.90;;
9042;SDS011;4556;49.150;8.808;2023-03-05T02:17:41;24.83;;;11.57;;
9042;SDS011;4556;49.150;8.808;2023-03-05T02:20:09;26.73;;;12.70;;
9042;SDS011;4556;49.150;8.808;2023-03-05T02:22:40;27.93;;;13.50;;
9042;SDS011;4556;49.150;8.808;2023-03-05T02:25:11;29.00;;;12.17;;
9042;SDS011;4556;49.150;8.808;2023-03-05T02:27:40;24.97;;;11.67;;
9042;SDS011;4556;49.150;8.808;2023-03-05T02:30:11;25.30;;;12.37;;
9042;SDS011;4556;49.150;8.808;2023-03-05T02:32:39;26.47;;;13.13;;
9042;SDS011;4556;49.150;8.808;2023-03-05T02:35:06;25.83;;;12.83;;
9042;SDS011;4556;49.150;8.808;2023-03-05T02:37:33;27.03;;;12.07;;
9042;SDS011;4556;49.150;8.808;2023-03-05T02:40:02;26.60;;;12.73;;
9042;SDS011;4556;49.150;8.808;2023-03-05T02:42:30;29.00;;;12.57;;
9042;SDS011;4556;49.150;8.808;2023-03-05T02:44:57;24.10;;;12.37;;
9042;SDS011;4556;49.150;8.808;2023-03-05T02:47:25;25.33;;;12.20;;
9042;SDS011;4556;49.150;8.808;2023-03-05T02:49:53;28.60;;;12.70;;
9042;SDS011;4556;49.150;8.808;2023-03-05T02:52:20;26.47;;;12.10;;
9042;SDS011;4556;49.150;8.808;2023-03-05T02:54:49;26.03;;;11.77;;
9042;SDS011;4556;49.150;8.808;2023-03-05T02:57:18;23.67;;;11.63;;
9042;SDS011;4556;49.150;8.808;2023-03-05T02:59:46;24.33;;;12.33;;
9042;SDS011;4556;49.150;8.808;2023-03-05T03:02:13;26.00;;;12.77;;
9042;SDS011;4556;49.150;8.808;2023-03-05T03:04:41;28.50;;;12.67;;
9042;SDS011;4556;49.150;8.808;2023-03-05T03:07:09;24.83;;;12.33;;
9042;SDS011;4556;49.150;8.808;2023-03-05T03:09:36;25.27;;;12.83;;
9042;SDS011;4556;49.150;8.808;2023-03-05T03:12:04;23.93;;;11.80;;
9042;SDS011;4556;49.150;8.808;2023-03-05T03:17:03;26.00;;;11.23;;
9042;SDS011;4556;49.150;8.808;2023-03-05T03:19:31;25.83;;;12.87;;
9042;SDS011;4556;49.150;8.808;2023-03-05T03:21:58;23.37;;;11.70;;
9042;SDS011;4556;49.150;8.808;2023-03-05T03:24:25;29.50;;;13.67;;
9042;SDS011;4556;49.150;8.808;2023-03-05T03:26:52;23.37;;;12.00;;
9042;SDS011;4556;49.150;8.808;2023-03-05T03:29:19;23.23;;;12.23;;
9042;SDS011;4556;49.150;8.808;2023-03-05T03:31:48;25.43;;;12.13;;
9042;SDS011;4556;49.150;8.808;2023-03-05T03:34:15;28.70;;;12.23;;
9042;SDS011;4556;49.150;8.808;2023-03-05T03:36:42;23.30;;;11.60;;
9042;SDS011;4556;49.150;8.808;2023-03-05T03:39:11;24.67;;;11.47;;
9042;SDS011;4556;49.150;8.808;2023-03-05T03:41:40;25.13;;;12.60;;
9042;SDS011;4556;49.150;8.808;2023-03-05T03:44:08;26.40;;;11.87;;
9042;SDS011;4556;49.150;8.808;2023-03-05T03:46:35;26.00;;;11.63;;
9042;SDS011;4556;49.150;8.808;2023-03-05T03:49:05;25.53;;;11.83;;
9042;SDS011;4556;49.150;8.808;2023-03-05T03:51:33;29.40;;;12.50;;
9042;SDS011;4556;49.150;8.808;2023-03-05T03:54:00;24.13;;;11.47;;
9042;SDS011;4556;49.150;8.808;2023-03-05T03:56:27;25.90;;;12.30;;
9042;SDS011;4556;49.150;8.808;2023-03-05T03:58:54;24.80;;;12.20;;
9042;SDS011;4556;49.150;8.808;2023-03-05T04:01:21;25.77;;;12.30;;
9042;SDS011;4556;49.150;8.808;2023-03-05T04:03:48;21.93;;;11.50;;
9042;SDS011;4556;49.150;8.808;2023-03-05T04:06:17;30.70;;;12.77;;
9042;SDS011;4556;49.150;8.808;2023-03-05T04:08:45;25.40;;;12.10;;
9042;SDS011;4556;49.150;8.808;2023-03-05T04:11:14;24.47;;;12.57;;
9042;SDS011;4556;49.150;8.808;2023-03-05T04:13:43;27.53;;;13.20;;
9042;SDS011;4556;49.150;8.808;2023-03-05T04:16:10;24.70;;;11.97;;
9042;SDS011;4556;49.150;8.808;2023-03-05T04:18:37;26.37;;;12.10;;
9042;SDS011;4556;49.150;8.808;2023-03-05T04:21:04;26.03;;;12.63;;
9042;SDS011;4556;49.150;8.808;2023-03-05T04:23:32;30.20;;;12.83;;
9042;SDS011;4556;49.150;8.808;2023-03-05T04:25:59;23.80;;;11.63;;
9042;SDS011;4556;49.150;8.808;2023-03-05T04:28:26;22.97;;;11.90;;
9042;SDS011;4556;49.150;8.808;2023-03-05T04:30:53;24.23;;;12.57;;
9042;SDS011;4556;49.150;8.808;2023-03-05T04:33:21;25.83;;;12.30;;
9042;SDS011;4556;49.150;8.808;2023-03-05T04:35:48;30.03;;;13.60;;
9042;SDS011;4556;49.150;8.808;2023-03-05T04:38:15;25.57;;;13.00;;
9042;SDS011;4556;49.150;8.808;2023-03-05T04:40:44;26.87;;;13.00;;
9042;SDS011;4556;49.150;8.808;2023-03-05T04:43:11;24.50;;;12.10;;
9042;SDS011;4556;49.150;8.808;2023-03-05T04:45:38;26.57;;;12.90;;
9042;SDS011;4556;49.150;8.808;2023-03-05T04:48:06;23.90;;;11.83;;
9042;SDS011;4556;49.150;8.808;2023-03-05T04:50:33;28.00;;;13.40;;
9042;SDS011;4556;49.150;8.808;2023-03-05T04:53:00;25.87;;;12.07;;
9042;SDS011;4556;49.150;8.808;2023-03-05T04:55:27;27.07;;;12.87;;
9042;SDS011;4556;49.150;8.808;2023-03-05T04:57:56;29.20;;;14.10;;
9042;SDS011;4556;49.150;8.808;2023-03-05T05:00:23;25.37;;;12.97;;
9042;SDS011;4556;49.150;8.808;2023-03-05T05:02:51;28.20;;;13.43;;
9042;SDS011;4556;49.150;8.808;2023-03-05T05:05:19;25.87;;;12.47;;
9042;SDS011;4556;49.150;8.808;2023-03-05T05:07:47;30.23;;;13.13;;
9042;SDS011;4556;49.150;8.808;2023-03-05T05:10:14;24.50;;;12.97;;
9042;SDS011;4556;49.150;8.808;2023-03-05T05:12:42;30.73;;;14.30;;
9042;SDS011;4556;49.150;8.808;2023-03-05T05:15:11;25.67;;;13.00;;
9042;SDS011;4556;49.150;8.808;2023-03-05T05:17:39;26.20;;;13.20;;
9042;SDS011;4556;49.150;8.808;2023-03-05T05:20:06;27.97;;;13.33;;
9042;SDS011;4556;49.150;8.808;2023-03-05T05:22:36;30.03;;;13.60;;
9042;SDS011;4556;49.150;8.808;2023-03-05T05:25:03;26.77;;;14.17;;
9042;SDS011;4556;49.150;8.808;2023-03-05T05:27:30;26.27;;;13.47;;
9042;SDS011;4556;49.150;8.808;2023-03-05T05:29:57;26.97;;;13.60;;
9042;SDS011;4556;49.150;8.808;2023-03-05T05:32:27;31.00;;;13.63;;
9042;SDS011;4556;49.150;8.808;2023-03-05T05:34:54;31.00;;;13.33;;
9042;SDS011;4556;49.150;8.808;2023-03-05T05:37:22;24.67;;;13.03;;
9042;SDS011;4556;49.150;8.808;2023-03-05T05:39:48;25.57;;;12.80;;
9042;SDS011;4556;49.150;8.808;2023-03-05T05:42:16;26.57;;;13.17;;
9042;SDS011;4556;49.150;8.808;2023-03-05T05:44:43;23.97;;;13.13;;
9042;SDS011;4556;49.150;8.808;2023-03-05T05:47:11;27.43;;;12.87;;
9042;SDS011;4556;49.150;8.808;2023-03-05T05:49:40;27.10;;;13.30;;
9042;SDS011;4556;49.150;8.808;2023-03-05T05:52:07;27.57;;;12.83;;
9042;SDS011;4556;49.150;8.808;2023-03-05T05:54:34;29.53;;;14.03;;
9042;SDS011;4556;49.150;8.808;2023-03-05T05:57:01;30.33;;;13.50;;
9042;SDS011;4556;49.150;8.808;2023-03-05T05:59:29;26.73;;;13.07;;
9042;SDS011;4556;49.150;8.808;2023-03-05T06:01:56;24.77;;;13.20;;
9042;SDS011;4556;49.150;8.808;2023-03-05T06:04:23;27.00;;;12.90;;
9042;SDS011;4556;49.150;8.808;2023-03-05T06:06:52;26.00;;;12.13;;
9042;SDS011;4556;49.150;8.808;2023-03-05T06:09:19;27.90;;;12.77;;
9042;SDS011;4556;49.150;8.808;2023-03-05T06:11:46;27.03;;;12.13;;
9042;SDS011;4556;49.150;8.808;2023-03-05T06:14:14;28.53;;;13.53;;
9042;SDS011;4556;49.150;8.808;2023-03-05T06:16:41;25.70;;;13.17;;
9042;SDS011;4556;49.150;8.808;2023-03-05T06:19:08;28.47;;;13.30;;
9042;SDS011;4556;49.150;8.808;2023-03-05T06:21:37;27.60;;;12.60;;
9042;SDS011;4556;49.150;8.808;2023-03-05T06:24:06;30.60;;;12.57;;
9042;SDS011;4556;49.150;8.808;2023-03-05T06:26:33;25.83;;;12.00;;
9042;SDS011;4556;49.150;8.808;2023-03-05T06:29:01;26.00;;;12.80;;
9042;SDS011;4556;49.150;8.808;2023-03-05T06:31:28;28.57;;;14.07;;
9042;SDS011;4556;49.150;8.808;2023-03-05T06:33:56;23.27;;;12.60;;
9042;SDS011;4556;49.150;8.808;2023-03-05T06:36:25;28.20;;;13.07;;
9042;SDS011;4556;49.150;8.808;2023-03-05T06:38:53;23.03;;;12.37;;
9042;SDS011;4556;49.150;8.808;2023-03-05T06:41:22;26.63;;;12.10;;
9042;SDS011;4556;49.150;8.808;2023-03-05T06:43:51;25.70;;;13.07;;
9042;SDS011;4556;49.150;8.808;2023-03-05T06:46:19;26.37;;;12.70;;
9042;SDS011;4556;49.150;8.808;2023-03-05T06:48:48;28.00;;;12.90;;
9042;SDS011;4556;49.150;8.808;2023-03-05T06:51:16;21.93;;;11.80;;
9042;SDS011;4556;49.150;8.808;2023-03-05T06:53:45;24.80;;;12.77;;
9042;SDS011;4556;49.150;8.808;2023-03-05T06:56:12;27.10;;;12.80;;
9042;SDS011;4556;49.150;8.808;2023-03-05T06:58:42;29.50;;;14.03;;
9042;SDS011;4556;49.150;8.808;2023-03-05T07:01:11;28.67;;;13.20;;
9042;SDS011;4556;49.150;8.808;2023-03-05T07:03:38;28.03;;;13.07;;
9042;SDS011;4556;49.150;8.808;2023-03-05T07:06:07;27.27;;;13.30;;
9042;SDS011;4556;49.150;8.808;2023-03-05T07:08:36;27.13;;;13.00;;
9042;SDS011;4556;49.150;8.808;2023-03-05T07:11:04;30.27;;;12.90;;
9042;SDS011;4556;49.150;8.808;2023-03-05T07:13:35;28.87;;;13.60;;
9042;SDS011;4556;49.150;8.808;2023-03-05T07:16:05;23.70;;;12.57;;
9042;SDS011;4556;49.150;8.808;2023-03-05T07:18:33;27.03;;;12.93;;
9042;SDS011;4556;49.150;8.808;2023-03-05T07:21:01;24.67;;;12.53;;
9042;SDS011;4556;49.150;8.808;2023-03-05T07:23:29;28.97;;;13.97;;
9042;SDS011;4556;49.150;8.808;2023-03-05T07:25:56;26.50;;;12.70;;
9042;SDS011;4556;49.150;8.808;2023-03-05T07:28:25;29.37;;;13.47;;
9042;SDS011;4556;49.150;8.808;2023-03-05T07:30:56;26.27;;;13.60;;
9042;SDS011;4556;49.150;8.808;2023-03-05T07:33:25;33.17;;;14.07;;
9042;SDS011;4556;49.150;8.808;2023-03-05T07:35:53;25.60;;;13.07;;
9042;SDS011;4556;49.150;8.808;2023-03-05T07:38:20;26.90;;;13.77;;
9042;SDS011;4556;49.150;8.808;2023-03-05T07:40:47;24.97;;;12.60;;
9042;SDS011;4556;49.150;8.808;2023-03-05T07:43:14;26.77;;;13.93;;
9042;SDS011;4556;49.150;8.808;2023-03-05T07:45:42;28.10;;;13.30;;
9042;SDS011;4556;49.150;8.808;2023-03-05T07:48:11;24.97;;;12.60;;
9042;SDS011;4556;49.150;8.808;2023-03-05T07:50:41;27.53;;;13.80;;
9042;SDS011;4556;49.150;8.808;2023-03-05T07:53:08;27.30;;;13.87;;
9042;SDS011;4556;49.150;8.808;2023-03-05T07:55:40;25.10;;;12.60;;
9042;SDS011;4556;49.150;8.808;2023-03-05T07:58:07;28.57;;;14.40;;
9042;SDS011;4556;49.150;8.808;2023-03-05T08:00:34;24.00;;;12.60;;
9042;SDS011;4556;49.150;8.808;2023-03-05T08:03:01;27.23;;;13.87;;
9042;SDS011;4556;49.150;8.808;2023-03-05T08:05:28;28.60;;;13.03;;
9042;SDS011;4556;49.150;8.808;2023-03-05T08:07:58;25.07;;;13.73;;
9042;SDS011;4556;49.150;8.808;2023-03-05T08:10:25;24.83;;;13.27;;
9042;SDS011;4556;49.150;8.808;2023-03-05T08:12:51;24.90;;;13.63;;
9042;SDS011;4556;49.150;8.808;2023-03-05T08:15:19;29.30;;;14.73;;
9042;SDS011;4556;49.150;8.808;2023-03-05T08:17:45;30.33;;;13.97;;
9042;SDS011;4556;49.150;8.808;2023-03-05T08:20:12;27.90;;;13.97;;
9042;SDS011;4556;49.150;8.808;2023-03-05T08:22:39;26.57;;;13.77;;
9042;SDS011;4556;49.150;8.808;2023-03-05T08:25:08;23.57;;;13.17;;
9042;SDS011;4556;49.150;8.808;2023-03-05T08:27:37;26.57;;;14.50;;
9042;SDS011;4556;49.150;8.808;2023-03-05T08:30:05;27.60;;;13.20;;
9042;SDS011;4556;49.150;8.808;2023-03-05T08:32:33;26.87;;;13.87;;
9042;SDS011;4556;49.150;8.808;2023-03-05T08:35:00;28.30;;;13.97;;
9042;SDS011;4556;49.150;8.808;2023-03-05T08:37:28;28.13;;;13.83;;
9042;SDS011;4556;49.150;8.808;2023-03-05T08:39:55;28.93;;;14.10;;
9042;SDS011;4556;49.150;8.808;2023-03-05T08:42:24;25.43;;;13.53;;
9042;SDS011;4556;49.150;8.808;2023-03-05T08:44:51;28.57;;;15.07;;
9042;SDS011;4556;49.150;8.808;2023-03-05T08:47:18;25.83;;;13.90;;
9042;SDS011;4556;49.150;8.808;2023-03-05T08:49:45;29.73;;;14.50;;
9042;SDS011;4556;49.150;8.808;2023-03-05T08:52:12;25.87;;;14.17;;
9042;SDS011;4556;49.150;8.808;2023-03-05T08:54:39;24.83;;;14.27;;
9042;SDS011;4556;49.150;8.808;2023-03-05T08:57:06;26.20;;;14.67;;
9042;SDS011;4556;49.150;8.808;2023-03-05T08:59:35;26.27;;;13.77;;
9042;SDS011;4556;49.150;8.808;2023-03-05T09:02:02;26.23;;;13.63;;
9042;SDS011;4556;49.150;8.808;2023-03-05T09:04:28;24.00;;;13.03;;
9042;SDS011;4556;49.150;8.808;2023-03-05T09:06:56;26.73;;;14.40;;
9042;SDS011;4556;49.150;8.808;2023-03-05T09:09:23;20.20;;;11.70;;
9042;SDS011;4556;49.150;8.808;2023-03-05T09:11:51;22.70;;;12.43;;
9042;SDS011;4556;49.150;8.808;2023-03-05T09:14:18;24.10;;;12.80;;
9042;SDS011;4556;49.150;8.808;2023-03-05T09:16:46;20.37;;;11.60;;
9042;SDS011;4556;49.150;8.808;2023-03-05T09:19:13;21.50;;;11.13;;
9042;SDS011;4556;49.150;8.808;2023-03-05T09:21:40;22.77;;;11.97;;
9042;SDS011;4556;49.150;8.808;2023-03-05T09:24:07;19.03;;;11.13;;
9042;SDS011;4556;49.150;8.808;2023-03-05T09:26:35;17.33;;;10.60;;
9042;SDS011;4556;49.150;8.808;2023-03-05T09:29:02;16.83;;;9.20;;
9042;SDS011;4556;49.150;8.808;2023-03-05T09:31:31;19.77;;;9.80;;
9042;SDS011;4556;49.150;8.808;2023-03-05T09:34:00;16.77;;;10.03;;
9042;SDS011;4556;49.150;8.808;2023-03-05T09:36:28;17.53;;;10.17;;
9042;SDS011;4556;49.150;8.808;2023-03-05T09:38:56;17.40;;;9.67;;
9042;SDS011;4556;49.150;8.808;2023-03-05T09:41:25;18.23;;;10.50;;
9042;SDS011;4556;49.150;8.808;2023-03-05T09:44:03;18.87;;;9.70;;
9042;SDS011;4556;49.150;8.808;2023-03-05T09:46:41;19.03;;;11.40;;
9042;SDS011;4556;49.150;8.808;2023-03-05T09:49:19;18.53;;;10.77;;
9042;SDS011;4556;49.150;8.808;2023-03-05T09:51:58;19.13;;;11.03;;
9042;SDS011;4556;49.150;8.808;2023-03-05T09:54:34;20.50;;;10.70;;
9042;SDS011;4556;49.150;8.808;2023-03-05T09:57:04;19.37;;;11.03;;
9042;SDS011;4556;49.150;8.808;2023-03-05T09:59:39;21.77;;;12.73;;
9042;SDS011;4556;49.150;8.808;2023-03-05T10:02:14;20.60;;;11.87;;
9042;SDS011;4556;49.150;8.808;2023-03-05T10:04:47;20.40;;;11.77;;
9042;SDS011;4556;49.150;8.808;2023-03-05T10:07:19;19.70;;;11.87;;
9042;SDS011;4556;49.150;8.808;2023-03-05T10:09:50;21.10;;;12.27;;
9042;SDS011;4556;49.150;8.808;2023-03-05T10:12:25;26.57;;;13.33;;
9042;SDS011;4556;49.150;8.808;2023-03-05T10:15:04;21.70;;;12.47;;
9042;SDS011;4556;49.150;8.808;2023-03-05T10:17:45;18.07;;;11.33;;
9042;SDS011;4556;49.150;8.808;2023-03-05T10:23:33;18.90;;;11.43;;
9042;SDS011;4556;49.150;8.808;2023-03-05T10:26:25;18.20;;;11.07;;
9042;SDS011;4556;49.150;8.808;2023-03-05T10:29:09;21.23;;;11.13;;
9042;SDS011;4556;49.150;8.808;2023-03-05T10:31:51;19.27;;;10.77;;
9042;SDS011;4556;49.150;8.808;2023-03-05T10:34:31;21.37;;;11.40;;
9042;SDS011;4556;49.150;8.808;2023-03-05T10:37:21;18.43;;;11.30;;
9042;SDS011;4556;49.150;8.808;2023-03-05T10:40:05;18.27;;;11.30;;
9042;SDS011;4556;49.150;8.808;2023-03-05T10:42:44;18.73;;;11.83;;
9042;SDS011;4556;49.150;8.808;2023-03-05T10:45:17;19.93;;;11.30;;
9042;SDS011;4556;49.150;8.808;2023-03-05T10:47:49;18.17;;;10.43;;
9042;SDS011;4556;49.150;8.808;2023-03-05T10:50:20;19.57;;;10.10;;
9042;SDS011;4556;49.150;8.808;2023-03-05T10:52:53;15.37;;;9.20;;
9042;SDS011;4556;49.150;8.808;2023-03-05T10:55:32;15.57;;;8.97;;
9042;SDS011;4556;49.150;8.808;2023-03-05T10:58:00;17.13;;;9.33;;
9042;SDS011;4556;49.150;8.808;2023-03-05T11:00:35;13.20;;;8.77;;
9042;SDS011;4556;49.150;8.808;2023-03-05T11:03:03;14.07;;;8.77;;
9042;SDS011;4556;49.150;8.808;2023-03-05T11:05:34;17.87;;;10.60;;
9042;SDS011;4556;49.150;8.808;2023-03-05T11:08:25;16.27;;;9.60;;
9042;SDS011;4556;49.150;8.808;2023-03-05T11:11:01;13.63;;;9.07;;
9042;SDS011;4556;49.150;8.808;2023-03-05T11:13:50;15.20;;;9.20;;
9042;SDS011;4556;49.150;8.808;2023-03-05T11:16:20;16.53;;;9.57;;
9042;SDS011;4556;49.150;8.808;2023-03-05T11:19:10;14.23;;;9.37;;
9042;SDS011;4556;49.150;8.808;2023-03-05T11:21:42;13.83;;;8.50;;
9042;SDS011;4556;49.150;8.808;2023-03-05T11:24:12;19.20;;;10.10;;
9042;SDS011;4556;49.150;8.808;2023-03-05T11:26:44;16.63;;;9.63;;
9042;SDS011;4556;49.150;8.808;2023-03-05T11:29:17;14.63;;;9.47;;
9042;SDS011;4556;49.150;8.808;2023-03-05T11:31:46;14.30;;;9.20;;
9042;SDS011;4556;49.150;8.808;2023-03-05T11:34:21;15.47;;;9.60;;
9042;SDS011;4556;49.150;8.808;2023-03-05T11:37:00;14.33;;;9.03;;
9042;SDS011;4556;49.150;8.808;2023-03-05T11:39:32;15.27;;;9.03;;
9042;SDS011;4556;49.150;8.808;2023-03-05T11:42:03;17.37;;;10.37;;
9042;SDS011;4556;49.150;8.808;2023-03-05T11:44:33;17.80;;;10.50;;
9042;SDS011;4556;49.150;8.808;2023-03-05T11:47:12;15.00;;;10.43;;
9042;SDS011;4556;49.150;8.808;2023-03-05T11:49:49;17.47;;;10.50;;
9042;SDS011;4556;49.150;8.808;2023-03-05T11:52:19;16.07;;;10.37;;
9042;SDS011;4556;49.150;8.808;2023-03-05T11:54:53;18.93;;;10.73;;
9042;SDS011;4556;49.150;8.808;2023-03-05T11:57:26;17.03;;;10.73;;
9042;SDS011;4556;49.150;8.808;2023-03-05T11:59:58;17.93;;;11.40;;
9042;SDS011;4556;49.150;8.808;2023-03-05T12:02:32;18.70;;;12.03;;
9042;SDS011;4556;49.150;8.808;2023-03-05T12:04:59;20.10;;;11.70;;
9042;SDS011;4556;49.150;8.808;2023-03-05T12:07:29;18.70;;;11.50;;
9042;SDS011;4556;49.150;8.808;2023-03-05T12:10:02;18.07;;;11.30;;
9042;SDS011;4556;49.150;8.808;2023-03-05T12:12:31;19.80;;;10.33;;
9042;SDS011;4556;49.150;8.808;2023-03-05T12:15:13;19.20;;;10.73;;
9042;SDS011;4556;49.150;8.808;2023-03-05T12:18:12;13.33;;;8.13;;
9042;SDS011;4556;49.150;8.808;2023-03-05T12:20:53;11.90;;;6.87;;
9042;SDS011;4556;49.150;8.808;2023-03-05T12:23:25;11.83;;;6.97;;
9042;SDS011;4556;49.150;8.808;2023-03-05T12:25:55;16.07;;;7.83;;
9042;SDS011;4556;49.150;8.808;2023-03-05T12:31:36;13.97;;;8.67;;
9042;SDS011;4556;49.150;8.808;2023-03-05T12:40:32;11.03;;;5.97;;
9042;SDS011;4556;49.150;8.808;2023-03-05T12:43:02;9.80;;;5.80;;
9042;SDS011;4556;49.150;8.808;2023-03-05T12:45:34;9.07;;;5.60;;
9042;SDS011;4556;49.150;8.808;2023-03-05T12:51:14;8.53;;;5.00;;
9042;SDS011;4556;49.150;8.808;2023-03-05T12:54:22;8.33;;;5.20;;
9042;SDS011;4556;49.150;8.808;2023-03-05T12:56:53;7.57;;;5.03;;
9042;SDS011;4556;49.150;8.808;2023-03-05T12:59:23;11.67;;;5.67;;
9042;SDS011;4556;49.150;8.808;2023-03-05T13:01:55;11.30;;;5.27;;
9042;SDS011;4556;49.150;8.808;2023-03-05T13:04:27;7.43;;;4.60;;
9042;SDS011;4556;49.150;8.808;2023-03-05T13:06:57;10.37;;;6.00;;
9042;SDS011;4556;49.150;8.808;2023-03-05T13:09:26;11.03;;;5.53;;
9042;SDS011;4556;49.150;8.808;2023-03-05T13:11:57;8.90;;;4.67;;
9042;SDS011;4556;49.150;8.808;2023-03-05T13:14:30;10.63;;;5.47;;
9042;SDS011;4556;49.150;8.808;2023-03-05T13:17:02;10.20;;;5.53;;
9042;SDS011;4556;49.150;8.808;2023-03-05T13:19:57;8.77;;;5.23;;
9042;SDS011;4556;49.150;8.808;2023-03-05T13:22:26;9.10;;;4.90;;
9042;SDS011;4556;49.150;8.808;2023-03-05T13:25:03;10.07;;;5.33;;
9042;SDS011;4556;49.150;8.808;2023-03-05T13:27:44;12.00;;;5.27;;
9042;SDS011;4556;49.150;8.808;2023-03-05T13:30:25;9.97;;;5.47;;
9042;SDS011;4556;49.150;8.808;2023-03-05T13:32:54;8.03;;;4.97;;
9042;SDS011;4556;49.150;8.808;2023-03-05T13:35:26;10.60;;;4.83;;
9042;SDS011;4556;49.150;8.808;2023-03-05T13:37:54;10.73;;;5.40;;
9042;SDS011;4556;49.150;8.808;2023-03-05T13:40:22;10.50;;;5.40;;
9042;SDS011;4556;49.150;8.808;2023-03-05T13:42:51;10.93;;;5.13;;
9042;SDS011;4556;49.150;8.808;2023-03-05T13:45:24;9.17;;;5.07;;
9042;SDS011;4556;49.150;8.808;2023-03-05T13:47:53;8.73;;;5.50;;
9042;SDS011;4556;49.150;8.808;2023-03-05T13:50:23;9.53;;;5.70;;
9042;SDS011;4556;49.150;8.808;2023-03-05T13:52:52;10.33;;;5.37;;
9042;SDS011;4556;49.150;8.808;2023-03-05T13:55:19;9.37;;;4.83;;
9042;SDS011;4556;49.150;8.808;2023-03-05T13:57:47;6.67;;;4.57;;
9042;SDS011;4556;49.150;8.808;2023-03-05T14:00:27;6.87;;;4.80;;
9042;SDS011;4556;49.150;8.808;2023-03-05T14:02:58;11.93;;;5.10;;
9042;SDS011;4556;49.150;8.808;2023-03-05T14:05:27;11.17;;;4.90;;
9042;SDS011;4556;49.150;8.808;2023-03-05T14:07:56;8.40;;;5.30;;
9042;SDS011;4556;49.150;8.808;2023-03-05T14:10:27;8.90;;;4.93;;
9042;SDS011;4556;49.150;8.808;2023-03-05T14:12:57;9.13;;;4.97;;
9042;SDS011;4556;49.150;8.808;2023-03-05T14:15:27;9.03;;;5.33;;
9042;SDS011;4556;49.150;8.808;2023-03-05T14:18:15;8.90;;;5.43;;
9042;SDS011;4556;49.150;8.808;2023-03-05T14:21:00;8.70;;;4.77;;
9042;SDS011;4556;49.150;8.808;2023-03-05T14:23:37;11.67;;;5.90;;
9042;SDS011;4556;49.150;8.808;2023-03-05T14:26:12;10.13;;;4.87;;
9042;SDS011;4556;49.150;8.808;2023-03-05T14:28:52;12.00;;;4.77;;
9042;SDS011;4556;49.150;8.808;2023-03-05T14:31:23;9.47;;;5.30;;
9042;SDS011;4556;49.150;8.808;2023-03-05T14:33:51;10.27;;;4.83;;
9042;SDS011;4556;49.150;8.808;2023-03-05T14:36:21;6.73;;;4.77;;
9042;SDS011;4556;49.150;8.808;2023-03-05T14:38:49;8.00;;;4.80;;
9042;SDS011;4556;49.150;8.808;2023-03-05T14:41:17;8.43;;;4.77;;
9042;SDS011;4556;49.150;8.808;2023-03-05T14:43:56;10.83;;;5.30;;
9042;SDS011;4556;49.150;8.808;2023-03-05T14:46:25;9.87;;;4.53;;
9042;SDS011;4556;49.150;8.808;2023-03-05T14:48:52;8.50;;;4.30;;
9042;SDS011;4556;49.150;8.808;2023-03-05T14:51:19;9.60;;;4.90;;
9042;SDS011;4556;49.150;8.808;2023-03-05T14:53:47;8.77;;;4.83;;
9042;SDS011;4556;49.150;8.808;2023-03-05T14:56:16;5.97;;;3.40;;
9042;SDS011;4556;49.150;8.808;2023-03-05T14:58:49;5.50;;;3.80;;
9042;SDS011;4556;49.150;8.808;2023-03-05T15:01:16;5.03;;;3.47;;
9042;SDS011;4556;49.150;8.808;2023-03-05T15:03:44;4.87;;;3.60;;
9042;SDS011;4556;49.150;8.808;2023-03-05T15:06:15;4.60;;;2.90;;
9042;SDS011;4556;49.150;8.808;2023-03-05T15:08:44;4.87;;;2.83;;
9042;SDS011;4556;49.150;8.808;2023-03-05T15:11:11;5.30;;;3.20;;
9042;SDS011;4556;49.150;8.808;2023-03-05T15:13:38;6.60;;;3.30;;
9042;SDS011;4556;49.150;8.808;2023-03-05T15:16:06;6.27;;;3.57;;
9042;SDS011;4556;49.150;8.808;2023-03-05T15:18:33;5.17;;;3.13;;
9042;SDS011;4556;49.150;8.808;2023-03-05T15:21:02;6.37;;;3.83;;
9042;SDS011;4556;49.150;8.808;2023-03-05T15:23:29;6.63;;;4.40;;
9042;SDS011;4556;49.150;8.808;2023-03-05T15:26:00;7.87;;;4.70;;
9042;SDS011;4556;49.150;8.808;2023-03-05T15:28:30;6.37;;;4.50;;